createdAt,value
2018-12-07T00:00:09.978Z,0.00
2018-12-07T00:01:10.982Z,0.00
2018-12-07T00:02:55.762Z,0.00
2018-12-07T00:05:35.128Z,0.00
2018-12-07T00:06:44.779Z,0.00
2018-12-07T00:08:39.600Z,0.00
2018-12-07T00:09:39.585Z,0.00
2018-12-07T00:10:39.571Z,0.00
2018-12-07T00:11:47.226Z,0.00
2018-12-07T00:12:39.561Z,0.00
2018-12-07T00:13:48.213Z,0.00
2018-12-07T00:15:53.035Z,0.00
2018-12-07T00:16:52.679Z,0.00
2018-12-07T00:18:48.507Z,0.00
2018-12-07T00:19:48.504Z,0.00
2018-12-07T00:20:57.141Z,0.00
2018-12-07T00:22:50.956Z,0.00
2018-12-07T00:23:50.544Z,0.00
2018-12-07T00:25:47.385Z,0.00
2018-12-07T00:26:56.013Z,0.00
2018-12-07T00:28:51.861Z,0.00
2018-12-07T00:30:00.476Z,0.00
2018-12-07T00:31:56.322Z,0.00
2018-12-07T00:32:56.301Z,0.00
2018-12-07T00:33:56.298Z,0.00
2018-12-07T00:34:56.298Z,0.00
2018-12-07T00:35:56.293Z,0.00
2018-12-07T00:36:56.285Z,0.00
2018-12-07T00:37:56.283Z,0.00
2018-12-07T00:38:56.280Z,0.00
2018-12-07T00:39:56.274Z,0.00
2018-12-07T00:40:56.268Z,0.00
2018-12-07T00:41:56.267Z,0.00
2018-12-07T00:42:56.259Z,0.00
2018-12-07T00:43:56.252Z,0.00
2018-12-07T00:44:56.250Z,0.00
2018-12-07T00:45:56.249Z,0.00
2018-12-07T00:46:56.240Z,0.00
2018-12-07T00:47:56.241Z,0.00
2018-12-07T00:48:56.245Z,0.00
2018-12-07T00:49:56.227Z,0.00
2018-12-07T00:50:56.222Z,0.00
2018-12-07T00:51:56.226Z,0.00
2018-12-07T00:52:56.216Z,0.00
2018-12-07T00:53:56.209Z,0.00
2018-12-07T00:54:56.205Z,0.00
2018-12-07T00:55:56.212Z,0.00
2018-12-07T00:56:56.196Z,0.00
2018-12-07T00:57:56.196Z,0.00
2018-12-07T00:58:56.214Z,0.00
2018-12-07T00:59:56.185Z,0.00
2018-12-07T01:00:56.186Z,0.00
2018-12-07T01:01:56.180Z,0.00
2018-12-07T01:02:56.177Z,0.00
2018-12-07T01:03:56.167Z,0.00
2018-12-07T01:04:56.168Z,0.00
2018-12-07T01:05:56.164Z,0.00
2018-12-07T01:06:56.151Z,0.00
2018-12-07T01:07:56.152Z,0.00
2018-12-07T01:09:04.793Z,0.00
2018-12-07T01:11:00.700Z,0.00
2018-12-07T01:12:00.642Z,0.00
2018-12-07T01:13:00.635Z,0.00
2018-12-07T01:14:00.631Z,0.00
2018-12-07T01:15:00.634Z,0.00
2018-12-07T01:16:00.625Z,0.00
2018-12-07T01:17:00.617Z,0.00
2018-12-07T01:18:00.619Z,0.00
2018-12-07T01:19:00.607Z,0.00
2018-12-07T01:20:00.605Z,0.00
2018-12-07T01:21:00.597Z,0.00
2018-12-07T01:22:00.600Z,0.00
2018-12-07T01:23:00.601Z,0.00
2018-12-07T01:24:00.586Z,0.00
2018-12-07T01:25:00.598Z,0.00
2018-12-07T01:26:00.583Z,0.00
2018-12-07T01:27:00.576Z,0.00
2018-12-07T01:28:00.567Z,0.00
2018-12-07T01:29:00.569Z,0.00
2018-12-07T01:30:00.650Z,0.00
2018-12-07T01:31:00.568Z,0.00
2018-12-07T01:32:00.555Z,0.00
2018-12-07T01:33:00.553Z,0.00
2018-12-07T01:34:00.546Z,0.00
2018-12-07T01:35:00.548Z,0.00
2018-12-07T01:36:00.546Z,0.00
2018-12-07T01:37:00.534Z,0.00
2018-12-07T01:38:00.530Z,0.00
2018-12-07T01:39:00.523Z,0.00
2018-12-07T01:40:00.523Z,0.00
2018-12-07T01:41:00.517Z,0.00
2018-12-07T01:42:00.517Z,0.00
2018-12-07T01:43:00.514Z,0.00
2018-12-07T01:44:00.513Z,0.00
2018-12-07T01:45:00.505Z,0.00
2018-12-07T01:46:00.493Z,0.00
2018-12-07T01:47:00.492Z,0.00
2018-12-07T01:48:00.483Z,0.00
2018-12-07T01:49:00.493Z,0.00
2018-12-07T01:50:00.479Z,0.00
2018-12-07T01:51:00.474Z,0.00
2018-12-07T01:52:00.471Z,0.00
2018-12-07T01:53:00.467Z,0.00
2018-12-07T01:54:00.462Z,0.00
2018-12-07T01:55:00.453Z,0.00
2018-12-07T01:56:00.462Z,0.00
2018-12-07T01:57:00.453Z,0.00
2018-12-07T01:58:00.442Z,0.00
2018-12-07T01:59:00.436Z,0.00
2018-12-07T02:00:00.435Z,0.00
2018-12-07T02:01:00.451Z,0.00
2018-12-07T02:02:00.433Z,0.00
2018-12-07T02:03:00.423Z,0.00
2018-12-07T02:04:00.410Z,0.00
2018-12-07T02:05:00.424Z,0.00
2018-12-07T02:06:00.405Z,0.00
2018-12-07T02:07:00.398Z,0.00
2018-12-07T02:08:00.401Z,0.00
2018-12-07T02:09:00.400Z,0.00
2018-12-07T02:10:00.393Z,0.00
2018-12-07T02:11:00.385Z,0.00
2018-12-07T02:12:00.383Z,0.00
2018-12-07T02:13:00.369Z,0.00
2018-12-07T02:14:00.382Z,0.00
2018-12-07T02:15:00.367Z,0.00
2018-12-07T02:16:00.357Z,0.00
2018-12-07T02:17:00.358Z,0.00
2018-12-07T02:18:00.359Z,0.00
2018-12-07T02:19:00.349Z,0.00
2018-12-07T02:20:00.351Z,0.00
2018-12-07T02:21:00.334Z,0.00
2018-12-07T02:22:00.356Z,0.00
2018-12-07T02:23:00.336Z,0.00
2018-12-07T02:24:00.342Z,0.00
2018-12-07T02:25:00.326Z,0.00
2018-12-07T02:26:00.322Z,0.00
2018-12-07T02:27:08.975Z,0.00
2018-12-07T02:29:04.823Z,0.00
2018-12-07T02:30:04.795Z,0.00
2018-12-07T02:31:04.808Z,0.00
2018-12-07T02:32:04.782Z,0.00
2018-12-07T02:33:04.782Z,0.00
2018-12-07T02:34:04.773Z,0.00
2018-12-07T02:35:04.767Z,0.00
2018-12-07T02:36:04.767Z,0.00
2018-12-07T02:37:04.770Z,0.00
2018-12-07T02:38:04.755Z,0.00
2018-12-07T02:39:04.748Z,0.00
2018-12-07T02:40:04.745Z,0.00
2018-12-07T02:41:04.757Z,0.00
2018-12-07T02:42:04.738Z,0.00
2018-12-07T02:43:04.730Z,0.00
2018-12-07T02:44:04.727Z,0.00
2018-12-07T02:45:04.730Z,0.00
2018-12-07T02:46:04.722Z,0.00
2018-12-07T02:47:04.715Z,0.00
2018-12-07T02:48:04.713Z,0.00
2018-12-07T02:49:04.704Z,0.00
2018-12-07T02:50:04.706Z,0.00
2018-12-07T02:51:04.707Z,0.00
2018-12-07T02:52:04.691Z,0.00
2018-12-07T02:53:04.697Z,0.00
2018-12-07T02:54:04.687Z,0.00
2018-12-07T02:55:04.699Z,0.00
2018-12-07T02:56:04.686Z,0.00
2018-12-07T03:13:50.345Z,0.00
2018-12-07T03:14:50.318Z,0.00
2018-12-07T03:15:50.300Z,0.00
2018-12-07T03:16:50.301Z,0.00
2018-12-07T03:17:50.292Z,0.00
2018-12-07T03:18:50.301Z,0.00
2018-12-07T03:19:50.274Z,0.00
2018-12-07T03:20:50.262Z,0.00
2018-12-07T03:21:50.263Z,0.00
2018-12-07T03:22:50.253Z,0.00
2018-12-07T03:23:50.251Z,0.00
2018-12-07T03:24:50.249Z,0.00
2018-12-07T03:25:50.254Z,0.00
2018-12-07T03:26:50.240Z,0.00
2018-12-07T03:27:50.225Z,0.00
2018-12-07T03:28:50.220Z,0.00
2018-12-07T03:29:50.217Z,0.00
2018-12-07T03:30:50.216Z,0.00
2018-12-07T03:31:50.213Z,0.00
2018-12-07T03:32:50.213Z,0.00
2018-12-07T03:33:50.216Z,0.00
2018-12-07T03:34:50.196Z,0.00
2018-12-07T03:35:50.185Z,0.00
2018-12-07T03:36:50.185Z,0.00
2018-12-07T03:37:50.179Z,0.00
2018-12-07T03:38:50.170Z,0.00
2018-12-07T03:39:50.171Z,0.00
2018-12-07T03:40:50.164Z,0.00
2018-12-07T03:41:50.176Z,0.00
2018-12-07T03:42:50.155Z,0.00
2018-12-07T03:43:50.147Z,0.00
2018-12-07T03:44:50.152Z,0.00
2018-12-07T03:45:50.144Z,0.00
2018-12-07T03:46:50.134Z,0.00
2018-12-07T03:47:50.137Z,0.00
2018-12-07T03:48:50.134Z,0.00
2018-12-07T03:49:50.143Z,0.00
2018-12-07T03:50:50.130Z,0.00
2018-12-07T03:51:50.120Z,0.00
2018-12-07T03:52:50.118Z,0.00
2018-12-07T03:53:50.109Z,0.00
2018-12-07T03:54:50.108Z,0.00
2018-12-07T03:55:50.112Z,0.00
2018-12-07T03:56:50.104Z,0.00
2018-12-07T03:57:50.112Z,0.00
2018-12-07T03:58:50.087Z,0.00
2018-12-07T03:59:50.094Z,0.00
2018-12-07T04:00:50.089Z,0.00
2018-12-07T04:01:50.085Z,0.00
2018-12-07T04:02:50.070Z,0.00
2018-12-07T04:03:50.072Z,0.00
2018-12-07T04:04:50.075Z,0.00
2018-12-07T04:05:50.070Z,0.00
2018-12-07T04:06:50.058Z,0.00
2018-12-07T04:07:50.052Z,0.00
2018-12-07T04:08:50.048Z,0.00
2018-12-07T04:09:50.038Z,0.00
2018-12-07T04:10:50.034Z,0.00
2018-12-07T04:11:50.034Z,0.00
2018-12-07T04:12:50.029Z,0.00
2018-12-07T04:13:50.030Z,0.00
2018-12-07T04:14:50.034Z,0.00
2018-12-07T04:15:50.014Z,0.00
2018-12-07T04:16:51.679Z,0.00
2018-12-07T04:17:50.006Z,0.00
2018-12-07T04:18:50.013Z,0.00
2018-12-07T04:19:50.005Z,0.00
2018-12-07T04:20:50.021Z,0.00
2018-12-07T04:21:49.998Z,0.00
2018-12-07T04:22:49.996Z,0.00
2018-12-07T04:23:49.994Z,0.00
2018-12-07T04:24:49.992Z,0.00
2018-12-07T04:25:49.983Z,0.00
2018-12-07T04:26:49.967Z,0.00
2018-12-07T04:27:49.971Z,0.00
2018-12-07T04:28:49.966Z,0.00
2018-12-07T04:29:49.959Z,0.00
2018-12-07T04:30:49.963Z,0.00
2018-12-07T04:31:49.957Z,0.00
2018-12-07T04:32:49.952Z,0.00
2018-12-07T04:33:49.950Z,0.00
2018-12-07T04:34:49.959Z,0.00
2018-12-07T04:35:49.939Z,0.00
2018-12-07T04:36:49.936Z,0.00
2018-12-07T04:37:49.921Z,0.00
2018-12-07T04:38:49.917Z,0.00
2018-12-07T04:39:49.912Z,0.00
2018-12-07T04:40:49.916Z,0.00
2018-12-07T04:41:49.908Z,0.00
2018-12-07T04:42:49.908Z,0.00
2018-12-07T04:43:49.904Z,0.00
2018-12-07T04:44:49.893Z,0.00
2018-12-07T04:45:49.899Z,0.00
2018-12-07T04:46:49.886Z,0.00
2018-12-07T04:47:49.887Z,0.00
2018-12-07T04:48:49.872Z,0.00
2018-12-07T04:49:49.878Z,0.00
2018-12-07T04:50:49.877Z,0.00
2018-12-07T04:51:49.867Z,0.00
2018-12-07T04:52:49.868Z,0.00
2018-12-07T04:55:29.253Z,0.00
2018-12-07T04:56:29.256Z,0.00
2018-12-07T04:57:29.242Z,0.00
2018-12-07T04:58:29.237Z,0.00
2018-12-07T05:01:01.379Z,0.00
2018-12-07T05:02:01.358Z,0.00
2018-12-07T05:03:01.344Z,0.00
2018-12-07T05:04:01.359Z,0.00
2018-12-07T05:05:01.343Z,0.00
2018-12-07T05:06:01.341Z,0.00
2018-12-07T05:07:01.337Z,0.00
2018-12-07T05:08:01.329Z,0.00
2018-12-07T05:09:01.332Z,0.00
2018-12-07T05:10:01.327Z,0.00
2018-12-07T05:11:01.316Z,0.00
2018-12-07T05:12:01.303Z,0.00
2018-12-07T05:13:01.305Z,0.00
2018-12-07T05:14:01.301Z,0.00
2018-12-07T05:15:01.314Z,0.00
2018-12-07T05:16:01.294Z,0.00
2018-12-07T05:17:01.290Z,0.00
2018-12-07T05:18:01.284Z,0.00
2018-12-07T05:19:01.286Z,0.00
2018-12-07T05:20:01.275Z,0.00
2018-12-07T05:21:01.261Z,0.00
2018-12-07T05:22:01.263Z,0.00
2018-12-07T05:23:01.265Z,0.00
2018-12-07T05:24:01.258Z,0.00
2018-12-07T05:25:01.251Z,0.00
2018-12-07T05:26:01.247Z,0.00
2018-12-07T05:27:01.242Z,0.00
2018-12-07T05:28:01.245Z,0.00
2018-12-07T05:29:01.243Z,0.00
2018-12-07T05:30:01.229Z,0.00
2018-12-07T05:31:01.579Z,0.00
2018-12-07T05:32:01.223Z,0.00
2018-12-07T05:33:01.225Z,0.00
2018-12-07T05:34:01.214Z,0.00
2018-12-07T05:35:01.211Z,0.00
2018-12-07T05:36:01.207Z,0.00
2018-12-07T05:37:01.209Z,0.00
2018-12-07T05:38:01.203Z,0.00
2018-12-07T05:39:01.185Z,0.00
2018-12-07T05:40:01.215Z,0.00
2018-12-07T05:41:01.179Z,0.00
2018-12-07T05:42:01.179Z,0.00
2018-12-07T05:43:01.179Z,0.00
2018-12-07T05:44:01.167Z,0.00
2018-12-07T05:45:01.187Z,0.00
2018-12-07T05:46:01.166Z,0.00
2018-12-07T05:47:01.156Z,0.00
2018-12-07T05:48:01.154Z,0.00
2018-12-07T05:49:01.144Z,0.00
2018-12-07T05:50:01.138Z,0.00
2018-12-07T05:51:01.138Z,0.00
2018-12-07T05:52:01.138Z,0.00
2018-12-07T05:53:01.122Z,0.00
2018-12-07T05:54:01.219Z,0.00
2018-12-07T05:55:01.130Z,0.00
2018-12-07T05:56:01.121Z,0.00
2018-12-07T05:57:01.118Z,0.00
2018-12-07T05:58:01.104Z,0.00
2018-12-07T05:59:01.101Z,0.00
2018-12-07T06:00:01.107Z,0.00
2018-12-07T06:01:01.106Z,0.00
2018-12-07T06:02:01.089Z,0.00
2018-12-07T06:03:01.085Z,0.00
2018-12-07T06:04:01.087Z,0.00
2018-12-07T06:05:01.073Z,0.00
2018-12-07T06:06:01.073Z,0.00
2018-12-07T06:07:01.067Z,0.00
2018-12-07T06:08:01.087Z,0.00
2018-12-07T06:09:01.060Z,0.00
2018-12-07T06:10:01.058Z,0.00
2018-12-07T06:11:01.051Z,0.00
2018-12-07T06:12:01.050Z,0.00
2018-12-07T06:13:01.045Z,0.00
2018-12-07T06:14:01.046Z,0.00
2018-12-07T06:15:01.032Z,0.00
2018-12-07T06:16:01.034Z,0.00
2018-12-07T06:17:01.027Z,0.00
2018-12-07T06:18:01.019Z,0.00
2018-12-07T06:19:01.017Z,0.00
2018-12-07T06:20:01.014Z,0.00
2018-12-07T06:21:01.009Z,0.00
2018-12-07T06:22:01.008Z,0.00
2018-12-07T06:23:01.004Z,0.00
2018-12-07T06:24:00.998Z,0.00
2018-12-07T06:25:01.001Z,0.00
2018-12-07T06:26:00.986Z,0.00
2018-12-07T06:27:00.976Z,0.00
2018-12-07T06:28:00.979Z,0.00
2018-12-07T06:29:00.989Z,0.00
2018-12-07T06:30:00.965Z,0.00
2018-12-07T06:31:00.964Z,0.00
2018-12-07T06:32:00.955Z,0.00
2018-12-07T06:33:00.957Z,0.00
2018-12-07T06:34:00.947Z,0.00
2018-12-07T06:35:00.948Z,0.00
2018-12-07T06:36:00.937Z,0.00
2018-12-07T06:37:00.963Z,0.00
2018-12-07T06:38:00.935Z,0.00
2018-12-07T06:39:00.929Z,0.00
2018-12-07T06:40:00.928Z,0.00
2018-12-07T06:41:00.929Z,0.00
2018-12-07T06:42:00.918Z,0.00
2018-12-07T06:43:00.917Z,0.00
2018-12-07T06:44:00.907Z,0.00
2018-12-07T06:45:00.913Z,0.00
2018-12-07T06:46:00.903Z,0.00
2018-12-07T06:47:00.893Z,0.00
2018-12-07T06:48:00.888Z,0.00
2018-12-07T06:49:00.889Z,0.00
2018-12-07T06:50:00.882Z,0.00
2018-12-07T06:51:00.886Z,4.00
2018-12-07T06:52:00.886Z,4.00
2018-12-07T06:53:00.866Z,4.00
2018-12-07T06:54:00.862Z,4.00
2018-12-07T06:55:00.859Z,4.00
2018-12-07T06:56:00.856Z,4.00
2018-12-07T06:57:00.852Z,4.00
2018-12-07T06:58:00.849Z,4.00
2018-12-07T06:59:00.928Z,4.00
2018-12-07T07:00:00.838Z,4.00
2018-12-07T07:01:00.834Z,8.00
2018-12-07T07:02:00.836Z,8.00
2018-12-07T07:03:00.822Z,8.00
2018-12-07T07:04:00.827Z,8.00
2018-12-07T07:05:00.814Z,12.00
2018-12-07T07:06:00.811Z,12.00
2018-12-07T07:07:00.808Z,12.00
2018-12-07T07:08:00.826Z,16.00
2018-12-07T07:09:00.856Z,16.00
2018-12-07T07:10:00.807Z,16.00
2018-12-07T07:11:00.795Z,24.00
2018-12-07T07:12:00.793Z,24.00
2018-12-07T07:13:00.798Z,20.00
2018-12-07T07:14:00.783Z,24.00
2018-12-07T07:15:00.780Z,28.00
2018-12-07T07:16:00.769Z,28.00
2018-12-07T07:17:00.773Z,28.00
2018-12-07T07:18:00.764Z,32.00
2018-12-07T07:19:00.762Z,28.00
2018-12-07T07:20:00.755Z,32.00
2018-12-07T07:21:00.752Z,36.00
2018-12-07T07:22:00.747Z,36.00
2018-12-07T07:23:00.752Z,40.00
2018-12-07T07:24:00.739Z,40.00
2018-12-07T07:25:00.738Z,44.00
2018-12-07T07:26:00.729Z,44.00
2018-12-07T07:27:00.725Z,48.00
2018-12-07T07:28:09.366Z,48.00
2018-12-07T07:30:05.209Z,56.00
2018-12-07T07:31:05.186Z,56.00
2018-12-07T07:32:05.185Z,64.00
2018-12-07T07:33:05.183Z,68.00
2018-12-07T07:34:05.198Z,72.00
2018-12-07T07:35:05.175Z,80.00
2018-12-07T07:36:05.163Z,80.00
2018-12-07T07:37:05.161Z,84.00
2018-12-07T07:38:05.156Z,84.00
2018-12-07T07:39:05.146Z,88.00
2018-12-07T07:40:05.154Z,96.00
2018-12-07T07:41:05.140Z,100.00
2018-12-07T07:42:05.140Z,108.00
2018-12-07T07:43:05.142Z,116.00
2018-12-07T07:44:05.133Z,124.00
2018-12-07T07:45:05.123Z,140.00
2018-12-07T07:46:05.123Z,152.00
2018-12-07T07:47:05.115Z,160.00
2018-12-07T07:48:05.108Z,140.00
2018-12-07T07:49:05.109Z,144.00
2018-12-07T07:50:05.106Z,156.00
2018-12-07T07:51:05.100Z,168.00
2018-12-07T07:52:05.097Z,172.00
2018-12-07T07:53:05.109Z,196.00
2018-12-07T07:54:05.082Z,204.00
2018-12-07T07:55:05.084Z,224.00
2018-12-07T07:56:05.076Z,252.00
2018-12-07T07:57:05.074Z,268.00
2018-12-07T07:58:05.069Z,280.00
2018-12-07T07:59:05.063Z,292.00
2018-12-07T08:00:05.064Z,292.00
2018-12-07T08:01:05.062Z,304.00
2018-12-07T08:02:05.046Z,308.00
2018-12-07T08:03:05.049Z,312.00
2018-12-07T08:04:05.044Z,320.00
2018-12-07T08:05:05.038Z,312.00
2018-12-07T08:06:05.036Z,312.00
2018-12-07T08:07:05.028Z,308.00
2018-12-07T08:08:05.022Z,312.00
2018-12-07T08:09:05.023Z,312.00
2018-12-07T08:10:05.019Z,320.00
2018-12-07T08:11:05.014Z,332.00
2018-12-07T08:12:05.006Z,340.00
2018-12-07T08:13:05.002Z,348.00
2018-12-07T08:14:04.995Z,352.00
2018-12-07T08:15:04.997Z,316.00
2018-12-07T08:16:04.990Z,300.00
2018-12-07T08:17:05.021Z,284.00
2018-12-07T08:18:04.984Z,280.00
2018-12-07T08:19:04.970Z,256.00
2018-12-07T08:20:04.972Z,228.00
2018-12-07T08:21:04.978Z,216.00
2018-12-07T08:22:04.960Z,216.00
2018-12-07T08:23:04.957Z,220.00
2018-12-07T08:24:04.958Z,236.00
2018-12-07T08:25:04.950Z,264.00
2018-12-07T08:26:04.944Z,264.00
2018-12-07T08:27:04.944Z,264.00
2018-12-07T08:28:04.941Z,268.00
2018-12-07T08:29:04.928Z,280.00
2018-12-07T08:30:04.927Z,292.00
2018-12-07T08:31:04.922Z,264.00
2018-12-07T08:32:04.923Z,272.00
2018-12-07T08:33:04.916Z,276.00
2018-12-07T08:34:04.916Z,296.00
2018-12-07T08:35:04.905Z,308.00
2018-12-07T08:36:04.900Z,312.00
2018-12-07T08:37:04.901Z,332.00
2018-12-07T08:38:04.901Z,320.00
2018-12-07T08:39:04.890Z,320.00
2018-12-07T08:40:04.883Z,324.00
2018-12-07T08:41:04.880Z,332.00
2018-12-07T08:42:06.857Z,352.00
2018-12-07T08:43:04.872Z,368.00
2018-12-07T08:44:04.896Z,404.00
2018-12-07T08:45:04.864Z,404.00
2018-12-07T08:46:04.859Z,420.00
2018-12-07T08:47:04.860Z,432.00
2018-12-07T08:48:04.857Z,432.00
2018-12-07T08:49:04.852Z,440.00
2018-12-07T08:50:04.843Z,400.00
2018-12-07T08:51:04.845Z,388.00
2018-12-07T08:52:04.833Z,380.00
2018-12-07T08:53:04.829Z,372.00
2018-12-07T08:54:04.825Z,380.00
2018-12-07T08:55:04.829Z,404.00
2018-12-07T08:56:04.822Z,424.00
2018-12-07T08:57:04.815Z,436.00
2018-12-07T08:58:04.818Z,444.00
2018-12-07T08:59:04.809Z,464.00
2018-12-07T09:00:04.804Z,484.00
2018-12-07T09:01:04.799Z,496.00
2018-12-07T09:02:04.795Z,508.00
2018-12-07T09:03:04.786Z,512.00
2018-12-07T09:04:04.784Z,548.00
2018-12-07T09:05:04.785Z,516.00
2018-12-07T09:06:04.776Z,576.00
2018-12-07T09:07:04.772Z,568.00
2018-12-07T09:08:04.768Z,548.00
2018-12-07T09:09:04.767Z,580.00
2018-12-07T09:10:04.767Z,604.00
2018-12-07T09:11:04.787Z,608.00
2018-12-07T09:12:04.744Z,620.00
2018-12-07T09:13:04.759Z,612.00
2018-12-07T09:14:04.743Z,632.00
2018-12-07T09:15:04.769Z,640.00
2018-12-07T09:16:04.733Z,624.00
2018-12-07T09:17:04.732Z,640.00
2018-12-07T09:18:04.735Z,648.00
2018-12-07T09:19:04.726Z,612.00
2018-12-07T09:20:04.748Z,620.00
2018-12-07T09:21:04.717Z,600.00
2018-12-07T09:22:04.711Z,584.00
2018-12-07T09:23:04.717Z,572.00
2018-12-07T09:24:04.715Z,564.00
2018-12-07T09:25:04.700Z,548.00
2018-12-07T09:26:04.697Z,528.00
2018-12-07T09:27:04.698Z,504.00
2018-12-07T09:28:04.694Z,480.00
2018-12-07T09:29:04.687Z,484.00
2018-12-07T09:30:04.681Z,496.00
2018-12-07T09:31:04.674Z,532.00
2018-12-07T09:32:04.685Z,564.00
2018-12-07T09:33:04.669Z,580.00
2018-12-07T09:34:04.687Z,544.00
2018-12-07T09:35:04.657Z,516.00
2018-12-07T09:36:04.656Z,476.00
2018-12-07T09:37:04.668Z,432.00
2018-12-07T09:38:04.651Z,436.00
2018-12-07T09:39:04.653Z,460.00
2018-12-07T09:40:04.649Z,500.00
2018-12-07T09:41:04.646Z,596.00
2018-12-07T09:42:04.649Z,612.00
2018-12-07T09:43:04.657Z,596.00
2018-12-07T09:44:04.628Z,624.00
2018-12-07T09:45:04.633Z,628.00
2018-12-07T09:46:04.628Z,644.00
2018-12-07T09:47:04.624Z,660.00
2018-12-07T09:48:04.613Z,692.00
2018-12-07T09:49:04.613Z,684.00
2018-12-07T09:50:04.608Z,724.00
2018-12-07T09:51:04.614Z,700.00
2018-12-07T09:52:04.598Z,712.00
2018-12-07T09:53:04.600Z,732.00
2018-12-07T09:54:04.586Z,764.00
2018-12-07T09:55:04.591Z,796.00
2018-12-07T09:56:04.580Z,812.00
2018-12-07T09:57:04.583Z,812.00
2018-12-07T09:58:04.573Z,808.00
2018-12-07T09:59:04.577Z,772.00
2018-12-07T10:00:04.573Z,760.00
2018-12-07T10:01:04.564Z,716.00
2018-12-07T10:02:04.564Z,736.00
2018-12-07T10:03:04.599Z,724.00
2018-12-07T10:04:04.559Z,712.00
2018-12-07T10:05:04.550Z,700.00
2018-12-07T10:06:04.550Z,668.00
2018-12-07T10:07:04.544Z,636.00
2018-12-07T10:08:04.553Z,652.00
2018-12-07T10:09:04.538Z,648.00
2018-12-07T10:10:04.534Z,588.00
2018-12-07T10:11:04.536Z,580.00
2018-12-07T10:12:04.529Z,564.00
2018-12-07T10:13:07.857Z,568.00
2018-12-07T10:14:04.534Z,560.00
2018-12-07T10:15:04.532Z,532.00
2018-12-07T10:16:04.512Z,576.00
2018-12-07T10:17:04.506Z,572.00
2018-12-07T10:18:04.503Z,540.00
2018-12-07T10:19:04.493Z,516.00
2018-12-07T10:20:04.501Z,500.00
2018-12-07T10:21:04.489Z,444.00
2018-12-07T10:22:04.489Z,412.00
2018-12-07T10:23:04.480Z,412.00
2018-12-07T10:24:04.479Z,396.00
2018-12-07T10:25:04.473Z,376.00
2018-12-07T10:26:04.474Z,412.00
2018-12-07T10:27:04.472Z,440.00
2018-12-07T10:28:04.470Z,468.00
2018-12-07T10:29:04.461Z,504.00
2018-12-07T10:30:04.467Z,500.00
2018-12-07T10:31:04.451Z,468.00
2018-12-07T10:32:04.452Z,440.00
2018-12-07T10:33:04.445Z,472.00
2018-12-07T10:34:04.438Z,476.00
2018-12-07T10:35:04.439Z,500.00
2018-12-07T10:36:04.439Z,480.00
2018-12-07T10:37:04.455Z,460.00
2018-12-07T10:38:04.430Z,440.00
2018-12-07T10:39:04.428Z,424.00
2018-12-07T10:40:04.422Z,404.00
2018-12-07T10:41:04.424Z,372.00
2018-12-07T10:42:04.408Z,372.00
2018-12-07T10:43:04.403Z,328.00
2018-12-07T10:44:04.401Z,308.00
2018-12-07T10:45:04.404Z,296.00
2018-12-07T10:46:04.400Z,276.00
2018-12-07T10:47:04.395Z,264.00
2018-12-07T10:48:04.393Z,248.00
2018-12-07T10:49:04.390Z,244.00
2018-12-07T10:50:04.382Z,252.00
2018-12-07T10:51:07.893Z,252.00
2018-12-07T10:52:04.381Z,264.00
2018-12-07T10:53:04.380Z,280.00
2018-12-07T10:54:04.366Z,300.00
2018-12-07T10:55:04.366Z,292.00
2018-12-07T10:56:04.371Z,296.00
2018-12-07T10:57:04.355Z,284.00
2018-12-07T10:58:04.355Z,288.00
2018-12-07T10:59:04.350Z,284.00
2018-12-07T11:00:04.347Z,276.00
2018-12-07T11:01:04.349Z,280.00
2018-12-07T11:02:04.341Z,292.00
2018-12-07T11:03:04.333Z,312.00
2018-12-07T11:04:04.329Z,324.00
2018-12-07T11:05:04.409Z,352.00
2018-12-07T11:06:04.320Z,348.00
2018-12-07T11:07:04.317Z,356.00
2018-12-07T11:08:04.321Z,352.00
2018-12-07T11:09:04.312Z,356.00
2018-12-07T11:10:04.310Z,380.00
2018-12-07T11:11:04.303Z,392.00
2018-12-07T11:12:04.299Z,396.00
2018-12-07T11:13:04.290Z,376.00
2018-12-07T11:14:04.285Z,360.00
2018-12-07T11:15:04.286Z,360.00
2018-12-07T11:16:04.283Z,344.00
2018-12-07T11:17:04.284Z,388.00
2018-12-07T11:18:04.278Z,396.00
2018-12-07T11:19:04.273Z,356.00
2018-12-07T11:20:04.267Z,320.00
2018-12-07T11:21:04.263Z,264.00
2018-12-07T11:22:04.253Z,260.00
2018-12-07T11:23:04.259Z,240.00
2018-12-07T11:24:04.251Z,232.00
2018-12-07T11:25:04.248Z,232.00
2018-12-07T11:26:04.247Z,228.00
2018-12-07T11:27:04.240Z,256.00
2018-12-07T11:28:04.236Z,272.00
2018-12-07T11:29:04.254Z,228.00
2018-12-07T11:30:04.230Z,216.00
2018-12-07T11:31:04.223Z,200.00
2018-12-07T11:32:04.220Z,200.00
2018-12-07T11:33:04.216Z,196.00
2018-12-07T11:34:04.212Z,188.00
2018-12-07T11:35:04.209Z,180.00
2018-12-07T11:36:08.098Z,164.00
2018-12-07T11:37:04.205Z,156.00
2018-12-07T11:38:04.202Z,152.00
2018-12-07T11:39:04.192Z,152.00
2018-12-07T11:40:04.196Z,164.00
2018-12-07T11:41:04.191Z,180.00
2018-12-07T11:42:04.181Z,184.00
2018-12-07T11:43:04.180Z,192.00
2018-12-07T11:44:04.174Z,208.00
2018-12-07T11:45:04.178Z,228.00
2018-12-07T11:46:04.165Z,252.00
2018-12-07T11:47:04.159Z,268.00
2018-12-07T11:48:04.157Z,252.00
2018-12-07T11:49:04.158Z,236.00
2018-12-07T11:50:04.154Z,232.00
2018-12-07T11:51:04.144Z,252.00
2018-12-07T11:52:04.142Z,308.00
2018-12-07T11:53:04.138Z,316.00
2018-12-07T11:54:04.135Z,352.00
2018-12-07T11:55:04.130Z,392.00
2018-12-07T11:56:04.125Z,452.00
2018-12-07T11:57:04.123Z,484.00
2018-12-07T11:58:04.117Z,516.00
2018-12-07T11:59:04.114Z,508.00
2018-12-07T12:00:04.110Z,500.00
2018-12-07T12:01:04.108Z,488.00
2018-12-07T12:02:04.095Z,444.00
2018-12-07T12:03:04.096Z,432.00
2018-12-07T12:04:04.092Z,420.00
2018-12-07T12:05:04.094Z,396.00
2018-12-07T12:06:04.086Z,420.00
2018-12-07T12:07:04.077Z,372.00
2018-12-07T12:08:04.077Z,384.00
2018-12-07T12:09:04.078Z,372.00
2018-12-07T12:10:04.067Z,380.00
2018-12-07T12:11:04.067Z,388.00
2018-12-07T12:12:04.057Z,384.00
2018-12-07T12:13:04.059Z,388.00
2018-12-07T12:14:04.048Z,384.00
2018-12-07T12:15:04.053Z,384.00
2018-12-07T12:16:04.040Z,372.00
2018-12-07T12:17:04.035Z,372.00
2018-12-07T12:18:04.034Z,380.00
2018-12-07T12:19:04.035Z,384.00
2018-12-07T12:20:04.027Z,392.00
2018-12-07T12:21:04.028Z,380.00
2018-12-07T12:22:04.021Z,392.00
2018-12-07T12:23:04.019Z,380.00
2018-12-07T12:24:04.012Z,364.00
2018-12-07T12:25:04.009Z,368.00
2018-12-07T12:26:04.000Z,360.00
2018-12-07T12:27:03.999Z,364.00
2018-12-07T12:28:03.993Z,376.00
2018-12-07T12:29:03.995Z,388.00
2018-12-07T12:30:03.990Z,392.00
2018-12-07T12:31:03.981Z,396.00
2018-12-07T12:32:03.980Z,380.00
2018-12-07T12:33:04.026Z,356.00
2018-12-07T12:34:03.970Z,384.00
2018-12-07T12:35:03.968Z,336.00
2018-12-07T12:36:03.963Z,332.00
2018-12-07T12:37:03.959Z,328.00
2018-12-07T12:38:03.956Z,344.00
2018-12-07T12:39:03.951Z,344.00
2018-12-07T12:40:03.949Z,348.00
2018-12-07T12:41:03.958Z,344.00
2018-12-07T12:42:03.939Z,348.00
2018-12-07T12:43:03.930Z,340.00
2018-12-07T12:44:12.588Z,332.00
2018-12-07T12:46:08.415Z,348.00
2018-12-07T12:47:08.399Z,348.00
2018-12-07T12:48:08.403Z,352.00
2018-12-07T12:49:08.392Z,372.00
2018-12-07T12:50:08.384Z,396.00
2018-12-07T12:51:08.390Z,404.00
2018-12-07T12:52:08.374Z,432.00
2018-12-07T12:53:08.374Z,428.00
2018-12-07T12:54:08.427Z,424.00
2018-12-07T12:55:08.362Z,436.00
2018-12-07T12:56:08.361Z,432.00
2018-12-07T12:57:08.360Z,432.00
2018-12-07T12:58:08.348Z,408.00
2018-12-07T12:59:08.351Z,412.00
2018-12-07T13:00:08.346Z,412.00
2018-12-07T13:01:08.332Z,404.00
2018-12-07T13:02:08.332Z,408.00
2018-12-07T13:03:08.334Z,416.00
2018-12-07T13:04:08.324Z,424.00
2018-12-07T13:05:08.319Z,420.00
2018-12-07T13:06:08.317Z,432.00
2018-12-07T13:07:08.313Z,432.00
2018-12-07T13:08:08.314Z,436.00
2018-12-07T13:09:08.309Z,448.00
2018-12-07T13:10:08.305Z,416.00
2018-12-07T13:11:08.293Z,436.00
2018-12-07T13:12:08.294Z,440.00
2018-12-07T13:13:08.291Z,440.00
2018-12-07T13:14:08.299Z,428.00
2018-12-07T13:15:08.285Z,428.00
2018-12-07T13:16:08.278Z,444.00
2018-12-07T13:17:08.275Z,452.00
2018-12-07T13:18:08.267Z,440.00
2018-12-07T13:19:08.282Z,448.00
2018-12-07T13:20:08.263Z,524.00
2018-12-07T13:21:08.260Z,580.00
2018-12-07T13:22:08.256Z,600.00
2018-12-07T13:23:08.251Z,508.00
2018-12-07T13:24:08.243Z,524.00
2018-12-07T13:25:08.246Z,572.00
2018-12-07T13:26:08.262Z,552.00
2018-12-07T13:27:08.229Z,472.00
2018-12-07T13:28:08.235Z,580.00